createdAt,value
2022-09-24T00:03:45.480Z,101387.75
2022-09-24T00:08:38.687Z,101411.88
2022-09-24T00:13:32.659Z,101406.47
2022-09-24T00:18:27.219Z,101399.56
2022-09-24T00:23:20.313Z,101361.19
2022-09-24T00:28:14.411Z,101400.22
2022-09-24T00:33:07.973Z,101388.22
2022-09-24T00:38:02.905Z,101398.09
2022-09-24T00:42:56.279Z,101375.16
2022-09-24T00:47:50.130Z,101318.63
2022-09-24T00:52:51.646Z,101321.13
2022-09-24T00:57:49.096Z,101389.50
2022-09-24T01:02:47.744Z,101364.91
2022-09-24T01:07:41.323Z,101364.91
2022-09-24T01:12:43.202Z,101390.66
2022-09-24T01:17:47.279Z,101352.34
2022-09-24T01:22:57.522Z,101359.69
2022-09-24T01:28:03.436Z,101388.97
2022-09-24T01:33:04.493Z,101393.34
2022-09-24T01:38:01.820Z,101397.22
2022-09-24T01:42:57.606Z,101401.81
2022-09-24T01:47:51.387Z,101402.34
2022-09-24T01:52:52.063Z,101395.72
2022-09-24T01:57:48.699Z,101406.56
2022-09-24T02:02:47.646Z,101365.91
2022-09-24T02:07:50.797Z,101394.34
2022-09-24T02:12:46.917Z,101381.09
2022-09-24T02:17:44.594Z,101418.84
2022-09-24T02:22:39.463Z,101413.53
2022-09-24T02:27:35.250Z,101399.66
2022-09-24T02:32:33.618Z,101408.94
2022-09-24T02:37:26.803Z,101424.34
2022-09-24T02:42:21.971Z,101375.34
2022-09-24T02:47:17.009Z,101404.22
2022-09-24T02:52:10.459Z,101401.47
2022-09-24T02:57:03.838Z,101416.78
2022-09-24T03:01:57.236Z,101361.59
2022-09-24T03:06:51.992Z,101412.69
2022-09-24T03:11:45.087Z,101444.19
2022-09-24T03:16:38.398Z,101451.47
2022-09-24T03:21:31.589Z,101451.75
2022-09-24T03:26:26.112Z,101438.22
2022-09-24T03:31:19.682Z,101452.84
2022-09-24T03:36:15.583Z,101439.91
2022-09-24T03:41:10.322Z,101439.38
2022-09-24T03:46:06.906Z,101469.13
2022-09-24T03:51:05.393Z,101477.19
2022-09-24T03:55:59.644Z,101497.03
2022-09-24T04:00:54.095Z,101447.91
2022-09-24T04:05:49.781Z,101508.91
2022-09-24T04:10:42.859Z,101517.88
2022-09-24T04:15:36.090Z,101521.38
2022-09-24T04:20:31.218Z,101530.44
2022-09-24T04:25:27.486Z,101529.91
2022-09-24T04:30:20.535Z,101505.81
2022-09-24T04:35:13.841Z,101544.09
2022-09-24T04:40:12.651Z,101455.66
2022-09-24T04:45:08.948Z,101519.75
2022-09-24T04:50:02.795Z,101501.38
2022-09-24T04:54:58.212Z,101499.63
2022-09-24T04:59:51.336Z,101517.75
2022-09-24T05:04:45.946Z,101540.88
2022-09-24T05:09:39.116Z,101524.03
2022-09-24T05:14:32.394Z,101538.50
2022-09-24T05:19:25.676Z,101474.50
2022-09-24T05:24:20.399Z,101577.91
2022-09-24T05:29:16.059Z,101567.81
2022-09-24T05:34:09.430Z,101571.09
2022-09-24T05:39:05.561Z,101537.88
2022-09-24T05:44:00.120Z,101539.88
2022-09-24T05:48:53.249Z,101586.19
2022-09-24T05:53:46.354Z,101595.38
2022-09-24T05:58:39.427Z,101605.22
2022-09-24T06:03:34.078Z,101606.84
2022-09-24T06:08:27.308Z,101590.94
2022-09-24T06:13:22.051Z,101630.56
2022-09-24T06:18:15.220Z,101628.97
2022-09-24T06:23:09.989Z,101633.13
2022-09-24T06:28:05.332Z,101631.03
2022-09-24T06:33:05.391Z,101634.31
2022-09-24T06:37:58.570Z,101641.41
2022-09-24T06:42:54.297Z,101650.38
2022-09-24T06:47:53.647Z,101640.44
2022-09-24T06:52:46.949Z,101616.63
2022-09-24T06:57:40.173Z,101603.91
2022-09-24T07:02:34.983Z,101607.50
2022-09-24T07:07:33.013Z,101669.03
2022-09-24T07:12:26.292Z,101666.13
2022-09-24T07:17:19.430Z,101672.13
2022-09-24T07:22:14.170Z,101666.72
2022-09-24T07:27:08.497Z,101645.34
2022-09-24T07:32:02.065Z,101667.03
2022-09-24T07:36:57.098Z,101636.91
2022-09-24T07:41:52.375Z,101665.03
2022-09-24T07:46:52.671Z,101623.69
2022-09-24T07:51:46.558Z,101680.34
2022-09-24T07:56:42.647Z,101653.63
2022-09-24T08:01:39.418Z,101544.91
2022-09-24T08:06:38.912Z,101682.38
2022-09-24T08:11:38.144Z,101623.59
2022-09-24T08:16:31.549Z,101678.66
2022-09-24T08:21:26.348Z,101636.91
2022-09-24T08:26:21.890Z,101564.56
2022-09-24T08:31:15.248Z,101657.19
2022-09-24T08:36:10.348Z,101654.34
2022-09-24T08:41:19.125Z,101520.41
2022-09-24T08:46:36.132Z,101596.06
2022-09-24T08:51:46.566Z,101573.22
2022-09-24T08:56:44.072Z,101645.16
2022-09-24T09:01:46.433Z,101645.63
2022-09-24T09:06:56.027Z,101558.09
2022-09-24T09:11:57.951Z,101623.06
2022-09-24T09:16:56.770Z,101613.31
2022-09-24T09:21:53.920Z,101613.88
2022-09-24T09:26:54.747Z,101569.94
2022-09-24T09:31:57.183Z,101624.03
2022-09-24T09:37:03.281Z,101614.56
2022-09-24T09:42:05.488Z,101625.13
2022-09-24T09:47:07.141Z,101604.56
2022-09-24T09:52:03.618Z,101549.59
2022-09-24T09:56:58.248Z,101539.97
2022-09-24T10:01:56.603Z,101544.41
2022-09-24T10:06:49.944Z,101599.84
2022-09-24T10:11:44.047Z,101557.53
2022-09-24T10:16:40.392Z,101489.66
2022-09-24T10:21:43.356Z,101585.38
2022-09-24T10:26:42.426Z,101595.25
2022-09-24T10:31:42.555Z,101585.09
2022-09-24T10:36:36.430Z,101569.78
2022-09-24T10:41:33.359Z,101483.78
2022-09-24T10:47:08.904Z,101418.03
2022-09-24T10:52:16.444Z,101488.34
2022-09-24T10:57:35.374Z,101400.53
2022-09-24T11:03:11.250Z,101548.16
2022-09-24T11:08:19.786Z,101485.88
2022-09-24T11:20:35.379Z,101517.72
2022-09-24T11:25:44.622Z,101500.38
2022-09-24T11:31:00.886Z,101362.81
2022-09-24T11:36:21.304Z,101456.03
2022-09-24T11:41:28.405Z,101515.19
2022-09-24T11:46:36.720Z,101325.41
2022-09-24T11:51:47.622Z,101465.00
2022-09-24T11:56:47.783Z,101507.13
2022-09-24T12:01:51.427Z,101499.22
2022-09-24T12:06:53.713Z,101515.28
2022-09-24T12:12:10.855Z,101429.97
2022-09-24T12:17:32.144Z,101471.56
2022-09-24T12:22:28.568Z,101516.09
2022-09-24T12:27:30.465Z,101512.91
2022-09-24T12:32:55.241Z,101507.28
2022-09-24T12:37:53.759Z,101442.22
2022-09-24T12:42:53.788Z,101485.44
2022-09-24T12:47:50.930Z,101425.81
2022-09-24T12:52:45.313Z,101345.38
2022-09-24T12:57:56.254Z,101465.22
2022-09-24T13:03:03.680Z,101338.16
2022-09-24T13:08:05.525Z,101366.25
2022-09-24T13:13:05.257Z,101458.56
2022-09-24T13:18:26.418Z,101427.50
2022-09-24T13:23:49.363Z,101372.88
2022-09-24T13:28:56.653Z,101477.50
2022-09-24T13:33:52.932Z,101318.53
2022-09-24T13:39:00.480Z,101468.75
2022-09-24T13:44:07.288Z,101405.03
2022-09-24T13:49:14.062Z,101327.31
2022-09-24T13:54:26.325Z,101311.03
2022-09-24T13:59:24.462Z,101346.28
2022-09-24T14:04:24.691Z,101305.75
2022-09-24T14:09:30.140Z,101379.44
2022-09-24T14:14:26.997Z,101447.38
2022-09-24T14:19:20.406Z,101384.09
2022-09-24T14:24:23.170Z,101315.13
2022-09-24T14:29:30.943Z,101464.13
2022-09-24T14:34:31.195Z,101465.34
2022-09-24T14:39:27.422Z,101407.16
2022-09-24T14:44:24.600Z,101440.91
2022-09-24T14:49:24.753Z,101390.59
2022-09-24T14:54:25.592Z,101397.09
2022-09-24T14:59:33.205Z,101422.25
2022-09-24T15:04:29.683Z,101384.53
2022-09-24T15:09:27.398Z,101326.38
2022-09-24T15:14:26.025Z,101428.03
2022-09-24T15:19:20.848Z,101449.72
2022-09-24T15:24:15.686Z,101382.03
2022-09-24T15:29:08.992Z,101450.25
2022-09-24T15:34:02.347Z,101453.81
2022-09-24T15:39:03.089Z,101368.59
2022-09-24T15:43:59.922Z,101357.47
2022-09-24T15:48:53.264Z,101449.00
2022-09-24T15:53:49.673Z,101264.44
2022-09-24T15:58:43.411Z,101431.00
2022-09-24T16:03:38.132Z,101341.94
2022-09-24T16:08:31.293Z,101456.41
2022-09-24T16:13:27.049Z,101344.22
2022-09-24T16:18:26.039Z,101369.72
2022-09-24T16:23:21.458Z,101455.38
2022-09-24T16:28:14.633Z,101451.47
2022-09-24T16:33:08.039Z,101458.34
2022-09-24T16:38:01.141Z,101422.59
2022-09-24T16:42:55.874Z,101472.22
2022-09-24T16:47:49.098Z,101460.03
2022-09-24T16:52:44.150Z,101461.81
2022-09-24T16:57:38.414Z,101473.53
2022-09-24T17:02:33.238Z,101419.50
2022-09-24T17:07:26.488Z,101372.38
2022-09-24T17:12:19.675Z,101448.22
2022-09-24T17:17:12.998Z,101441.19
2022-09-24T17:22:07.623Z,101460.28
2022-09-24T17:27:01.559Z,101445.59
2022-09-24T17:31:57.957Z,101458.34
2022-09-24T17:36:51.283Z,101511.97
2022-09-24T17:41:46.179Z,101410.41
2022-09-24T17:46:40.398Z,101480.03
2022-09-24T17:51:36.471Z,101516.31
2022-09-24T17:56:32.124Z,101521.53
2022-09-24T18:01:29.062Z,101488.41
2022-09-24T18:06:27.112Z,101505.38
2022-09-24T18:11:24.470Z,101517.03
2022-09-24T18:16:19.677Z,101522.09
2022-09-24T18:21:18.881Z,101467.91
2022-09-24T18:26:14.556Z,101395.53
2022-09-24T18:31:08.936Z,101518.81
2022-09-24T18:36:07.281Z,101508.50
2022-09-24T18:41:11.463Z,101524.59
2022-09-24T18:46:06.910Z,101462.44
2022-09-24T18:51:00.652Z,101522.25
2022-09-24T18:55:57.497Z,101452.16
2022-09-24T19:00:57.308Z,101489.13
2022-09-24T19:05:51.697Z,101497.97
2022-09-24T19:10:45.344Z,101473.72
2022-09-24T19:15:42.702Z,101490.84
2022-09-24T19:20:38.794Z,101472.69
2022-09-24T19:25:33.766Z,101499.94
2022-09-24T19:30:27.692Z,101493.47
2022-09-24T19:35:33.392Z,101464.69
2022-09-24T19:40:28.214Z,101525.59
2022-09-24T19:45:21.565Z,101418.28
2022-09-24T19:50:17.669Z,101437.81
2022-09-24T19:55:12.450Z,101488.75
2022-09-24T20:00:08.506Z,101492.91
2022-09-24T20:05:01.791Z,101530.81
2022-09-24T20:09:55.113Z,101515.03
2022-09-24T20:14:48.269Z,101515.06
2022-09-24T20:19:43.013Z,101461.66
2022-09-24T20:24:39.105Z,101535.69
2022-09-24T20:29:32.382Z,101504.47
2022-09-24T20:34:33.908Z,101518.16
2022-09-24T20:39:28.794Z,101546.78
2022-09-24T20:44:22.174Z,101540.03
2022-09-24T20:49:22.540Z,101559.78
2022-09-24T20:54:16.014Z,101559.88
2022-09-24T20:59:10.738Z,101532.00
2022-09-24T21:04:04.426Z,101519.19
2022-09-24T21:08:58.086Z,101555.56
2022-09-24T21:13:53.255Z,101468.19
2022-09-24T21:18:48.808Z,101501.41
2022-09-24T21:23:42.568Z,101530.25
2022-09-24T21:28:35.798Z,101541.94
2022-09-24T21:33:29.117Z,101543.78
2022-09-24T21:38:24.426Z,101459.25
2022-09-24T21:43:17.591Z,101532.38
2022-09-24T21:48:11.290Z,101527.06
2022-09-24T21:53:04.916Z,101522.72
2022-09-24T21:57:59.567Z,101476.31
2022-09-24T22:02:53.014Z,101509.19
2022-09-24T22:07:46.678Z,101454.00
2022-09-24T22:12:40.112Z,101518.78
2022-09-24T22:17:34.742Z,101514.25
2022-09-24T22:22:27.921Z,101458.72
2022-09-24T22:27:20.998Z,101498.94
2022-09-24T22:32:14.090Z,101503.91
2022-09-24T22:37:08.762Z,101498.53
2022-09-24T22:42:01.877Z,101481.34
2022-09-24T22:46:55.014Z,101473.78
2022-09-24T22:51:48.181Z,101492.47
2022-09-24T22:56:42.787Z,101521.63
2022-09-24T23:01:40.409Z,101521.50
2022-09-24T23:06:34.801Z,101526.19
2022-09-24T23:11:29.738Z,101345.16
2022-09-24T23:16:26.061Z,101519.94
2022-09-24T23:21:20.676Z,101518.81
2022-09-24T23:26:16.951Z,101490.38
2022-09-24T23:31:13.731Z,101480.03
2022-09-24T23:36:10.535Z,101507.16
2022-09-24T23:41:05.444Z,101462.41
2022-09-24T23:45:59.030Z,101457.81
2022-09-24T23:50:52.368Z,101503.50
2022-09-24T23:55:48.110Z,101495.13
